Time;durP1;ratioP1;P1;durP2;ratioP2;P2;SDS_P1;SDS_P2;PMS_P1;PMS_P2;Temp;Humidity;BMP_temperature;BMP_pressure;BME280_temperature;BME280_humidity;BME280_pressure;Samples;Min_cycle;Max_cycle;Signal;HPM_P1;HPM_P2
2022/05/03 00:00:06;;;;;;;4.75;4.28;;;;;;;20.50;51.98;100891.41;4977663;28;20359;-72
2022/05/03 00:02:58;;;;;;;4.97;4.22;;;;;;;20.51;51.76;100892.25;4984022;28;20058;-72
2022/05/03 00:05:44;;;;;;;5.70;4.55;;;;;;;20.49;51.83;100889.69;4977104;28;20377;-72
2022/05/03 00:08:16;;;;;;;5.80;3.97;;;;;;;20.50;51.78;100891.41;4977254;28;20057;-72
2022/05/03 00:11:09;;;;;;;7.03;4.85;;;;;;;20.49;51.83;100890.53;4976975;28;20051;-72
2022/05/03 00:13:46;;;;;;;7.35;4.28;;;;;;;20.49;51.66;100887.00;4977266;28;20387;-72
2022/05/03 00:16:15;;;;;;;5.53;3.90;;;;;;;20.49;51.66;100889.69;4977054;28;20054;-72
2022/05/03 00:18:43;;;;;;;5.32;4.32;;;;;;;20.49;51.67;100890.53;4976302;28;20054;-72
2022/05/03 00:21:10;;;;;;;6.03;4.18;;;;;;;20.49;51.70;100884.31;4976516;28;20074;-71
2022/05/03 00:23:38;;;;;;;5.85;4.75;;;;;;;20.49;51.74;100884.31;4976373;28;20066;-72
2022/05/03 00:26:08;;;;;;;4.20;3.65;;;;;;;20.48;51.70;100886.16;4976479;28;20410;-72
2022/05/03 00:28:36;;;;;;;4.72;4.07;;;;;;;20.48;51.65;100879.88;4976694;28;20583;-72
2022/05/03 00:31:05;;;;;;;5.50;4.13;;;;;;;20.48;51.67;100882.59;4976293;28;20043;-72
2022/05/03 00:33:34;;;;;;;4.43;3.97;;;;;;;20.47;51.59;100870.97;4976567;28;20479;-72
2022/05/03 00:36:01;;;;;;;4.88;4.10;;;;;;;20.47;51.62;100879.03;4976189;28;20058;-72
2022/05/03 00:38:34;;;;;;;6.45;4.38;;;;;;;20.47;51.52;100881.72;4975967;28;20059;-72
2022/05/03 00:41:04;;;;;;;;;;;;;;;20.47;51.50;100881.72;4976946;28;20404;-72
2022/05/03 00:43:43;;;;;;;6.22;4.20;;;;;;;20.47;51.60;100876.34;4976251;28;20286;-72
2022/05/03 00:46:16;;;;;;;4.68;4.07;;;;;;;20.47;51.62;100876.34;4976065;28;20514;-72
2022/05/03 00:48:50;;;;;;;4.90;4.40;;;;;;;20.47;51.48;100875.50;4976602;28;20051;-72
2022/05/03 00:51:28;;;;;;;4.30;3.65;;;;;;;20.48;51.48;100877.19;4975586;28;20498;-72
2022/05/03 00:54:12;;;;;;;5.43;4.50;;;;;;;20.47;51.60;100878.19;4976475;28;20057;-72
2022/05/03 00:57:01;;;;;;;4.75;4.22;;;;;;;20.47;51.42;100878.19;4976242;28;20494;-72
2022/05/03 01:00:05;;;;;;;4.82;4.25;;;;;;;20.47;51.52;100875.50;4976323;28;20054;-72
2022/05/03 01:02:38;;;;;;;5.68;3.97;;;;;;;20.46;51.43;100857.69;4976084;28;20482;-72
2022/05/03 01:05:10;;;;;;;4.82;3.80;;;;;;;20.45;51.42;100859.50;4975508;28;20043;-72
2022/05/03 01:07:58;;;;;;;5.37;4.27;;;;;;;20.46;51.46;100863.06;4976203;28;20479;-72
2022/05/03 01:10:34;;;;;;;4.78;4.20;;;;;;;20.46;51.41;100863.91;4975635;28;20057;-72
2022/05/03 01:13:20;;;;;;;4.47;3.78;;;;;;;20.46;51.41;100863.06;4975796;28;20066;-72
2022/05/03 01:15:58;;;;;;;4.70;3.92;;;;;;;20.45;51.42;100861.34;4974237;28;20055;-72
2022/05/03 01:18:55;;;;;;;4.80;4.18;;;;;;;20.45;51.40;100859.50;4975541;28;20406;-72
2022/05/03 01:21:56;;;;;;;4.88;4.00;;;;;;;20.45;51.36;100856.81;4975628;28;20054;-71
2022/05/03 01:24:32;;;;;;;4.88;4.40;;;;;;;20.45;51.31;100861.34;4975128;28;20059;-71
2022/05/03 01:27:26;;;;;;;4.50;4.10;;;;;;;20.45;51.28;100864.03;4975302;28;20051;-71
2022/05/03 01:30:09;;;;;;;5.20;3.70;;;;;;;20.45;51.31;100862.19;4945952;28;20391;-71
2022/05/03 01:32:38;;;;;;;4.60;4.10;;;;;;;20.45;51.31;100861.34;4975429;28;20047;-71
2022/05/03 01:35:07;;;;;;;5.07;4.20;;;;;;;20.44;51.27;100865.88;4975486;28;20047;-71
2022/05/03 01:38:03;;;;;;;4.57;4.15;;;;;;;20.45;51.44;100861.34;4974959;28;20046;-71
2022/05/03 01:40:38;;;;;;;4.38;3.97;;;;;;;20.43;51.27;100860.63;4976190;28;20062;-71
2022/05/03 01:43:18;;;;;;;4.70;3.92;;;;;;;20.44;51.20;100862.34;4975525;28;20042;-71
2022/05/03 01:46:03;;;;;;;4.93;4.40;;;;;;;20.44;51.26;100860.50;4975157;28;20058;-71
2022/05/03 01:51:58;;;;;;;7.35;3.72;;;;;;;20.43;51.15;100860.63;4974816;28;20497;-72
2022/05/03 01:55:02;;;;;;;4.22;3.83;;;;;;;20.43;51.15;100863.31;4973578;28;20055;-71
2022/05/03 01:57:45;;;;;;;5.30;3.90;;;;;;;20.43;51.27;100866.88;4975032;28;20057;-71
2022/05/03 02:00:12;;;;;;;5.18;4.40;;;;;;;20.42;51.17;100862.47;4973383;28;20410;-71
2022/05/03 02:03:11;;;;;;;4.53;4.13;;;;;;;20.44;51.27;100859.66;4974710;28;20058;-71
2022/05/03 02:05:44;;;;;;;5.55;4.35;;;;;;;20.42;51.30;100867.84;4974794;28;20046;-72
2022/05/03 02:08:18;;;;;;;4.15;3.65;;;;;;;20.43;51.07;100863.31;4975541;28;20047;-71
2022/05/03 02:10:54;;;;;;;4.53;4.13;;;;;;;20.42;51.20;100867.00;4974975;28;20047;-72
2022/05/03 02:17:20;;;;;;;5.00;4.38;;;;;;;20.41;51.02;100866.13;4991613;28;20267;-71
2022/05/03 02:20:01;;;;;;;5.13;4.25;;;;;;;20.41;51.16;100852.69;4991937;28;20451;-71
2022/05/03 02:22:40;;;;;;;4.28;3.88;;;;;;;20.41;51.16;100859.91;4976096;28;20063;-72
2022/05/03 02:25:43;;;;;;;4.93;4.38;;;;;;;20.41;51.19;100859.91;4992357;28;20058;-72
2022/05/03 02:28:29;;;;;;;5.50;3.75;;;;;;;20.40;51.05;100864.44;4991806;28;20065;-72
2022/05/03 02:31:02;;;;;;;4.65;4.22;;;;;;;20.40;51.20;100868.97;4991648;28;20061;-72
2022/05/03 02:33:38;;;;;;;4.57;4.15;;;;;;;20.40;50.99;100868.97;4992386;28;20057;-72
2022/05/03 02:36:12;;;;;;;4.28;3.88;;;;;;;20.40;51.06;100863.59;4992064;28;20422;-71
2022/05/03 02:38:50;;;;;;;4.97;4.47;;;;;;;20.40;51.16;100863.59;4976441;28;20065;-72
2022/05/03 02:41:19;;;;;;;5.82;4.47;;;;;;;20.39;51.11;100865.44;4992402;28;20070;-72
2022/05/03 02:43:47;;;;;;;4.70;4.20;;;;;;;20.39;50.91;100862.75;4976162;28;20049;-72
2022/05/03 02:46:24;;;;;;;4.72;3.63;;;;;;;20.40;51.04;100866.28;4990682;28;20055;-72
2022/05/03 02:49:03;;;;;;;5.47;4.80;;;;;;;20.38;50.87;100861.06;4974543;28;20058;-72
2022/05/03 02:51:50;;;;;;;5.57;4.05;;;;;;;20.39;50.98;100861.91;4974441;28;20051;-72
2022/05/03 02:54:46;;;;;;;6.55;4.20;;;;;;;20.39;51.15;100862.75;4974320;28;20057;-72
2022/05/03 02:57:26;;;;;;;4.82;3.85;;;;;;;20.39;51.07;100856.53;4973890;28;20055;-72
2022/05/03 03:03:36;;;;;;;4.75;4.05;;;;;;;20.38;51.13;100852.16;4974263;28;20043;-72
2022/05/03 03:06:04;;;;;;;7.00;4.15;;;;;;;20.38;51.21;100854.84;4991310;28;20062;-72
2022/05/03 03:08:39;;;;;;;4.88;4.05;;;;;;;20.38;51.27;100849.47;4993604;28;20057;-71
2022/05/03 03:11:28;;;;;;;4.88;4.25;;;;;;;20.36;51.41;100846.88;4995920;28;20066;-71
2022/05/03 03:14:19;;;;;;;4.38;3.92;;;;;;;20.38;51.11;100855.69;4995396;28;20057;-72
2022/05/03 03:16:53;;;;;;;5.13;4.20;;;;;;;20.37;51.17;100856.66;4995228;28;20062;-71
2022/05/03 03:19:39;;;;;;;4.38;3.88;;;;;;;20.37;51.17;100853.97;4979006;28;20391;-71
2022/05/03 03:22:12;;;;;;;5.28;4.15;;;;;;;20.38;51.07;100860.22;4995407;28;20433;-72
2022/05/03 03:24:40;;;;;;;4.65;4.15;;;;;;;20.37;51.29;100862.03;4994735;28;20070;-71
2022/05/03 03:27:11;;;;;;;4.68;4.22;;;;;;;20.37;51.20;100859.34;4978321;28;20158;-71
2022/05/03 03:29:40;;;;;;;5.65;4.38;;;;;;;20.36;51.22;100857.63;4994779;28;20165;-71
2022/05/03 03:32:09;;;;;;;4.35;3.88;;;;;;;20.37;51.30;100851.25;4995184;28;20502;-71
2022/05/03 03:34:41;;;;;;;4.18;3.65;;;;;;;20.37;51.49;100853.97;4995187;28;20485;-71
2022/05/03 03:37:11;;;;;;;4.93;3.75;;;;;;;20.38;51.56;100850.31;4994949;28;20140;-71
2022/05/03 03:39:38;;;;;;;4.35;3.88;;;;;;;20.37;51.24;100853.97;4978349;28;20058;-72
2022/05/03 03:42:06;;;;;;;6.80;4.47;;;;;;;20.36;51.36;100848.72;4989835;28;20063;-72
2022/05/03 03:44:34;;;;;;;5.90;4.55;;;;;;;20.36;51.17;100848.72;4976881;28;20043;-72
2022/05/03 03:47:03;;;;;;;4.18;3.72;;;;;;;20.37;51.38;100853.97;4976850;28;20402;-71
2022/05/03 03:49:38;;;;;;;4.20;3.70;;;;;;;20.36;51.41;100854.94;4977634;28;20062;-71
2022/05/03 03:52:07;;;;;;;7.35;4.22;;;;;;;20.36;51.29;100862.16;4976840;28;20042;-71
2022/05/03 03:54:36;;;;;;;4.65;4.15;;;;;;;20.36;51.23;100859.47;4976793;28;20050;-71
2022/05/03 03:57:04;;;;;;;4.45;3.85;;;;;;;20.36;51.38;100856.78;4975644;28;20057;-71
2022/05/03 03:59:32;;;;;;;4.18;3.70;;;;;;;20.36;51.15;100859.47;4976605;28;20490;-71
2022/05/03 04:02:01;;;;;;;5.13;4.22;;;;;;;20.35;51.40;100860.47;4975396;28;20047;-72
2022/05/03 04:04:33;;;;;;;4.25;3.85;;;;;;;20.35;51.37;100858.63;4977524;28;20154;-71
2022/05/03 04:07:01;;;;;;;3.78;3.38;;;;;;;20.35;51.36;100864.00;4977257;28;20051;-72
2022/05/03 04:09:29;;;;;;;4.57;3.78;;;;;;;20.36;51.46;100856.78;4977159;28;20054;-72
2022/05/03 04:11:58;;;;;;;6.28;3.90;;;;;;;20.34;51.48;100865.00;4976356;28;20038;-72
2022/05/03 04:14:26;;;;;;;6.05;4.57;;;;;;;20.36;51.23;100872.94;4977130;28;20050;-71
2022/05/03 04:16:53;;;;;;;4.70;4.13;;;;;;;20.35;51.38;100865.84;4977602;28;20046;-71
2022/05/03 04:19:21;;;;;;;4.55;3.80;;;;;;;20.36;51.06;100868.41;4976089;28;20054;-71
2022/05/03 04:21:49;;;;;;;5.18;4.40;;;;;;;20.35;51.27;100871.22;4977051;28;20047;-72
2022/05/03 04:24:16;;;;;;;4.85;4.05;;;;;;;20.35;51.21;100872.09;4976138;28;20402;-72
2022/05/03 04:26:44;;;;;;;5.18;4.45;;;;;;;20.35;51.33;100865.84;4976262;28;20055;-72
2022/05/03 04:29:11;;;;;;;6.95;4.15;;;;;;;20.35;51.30;100871.22;4976056;28;20047;-71
2022/05/03 04:31:39;;;;;;;5.65;4.40;;;;;;;20.34;51.25;100872.22;4976591;28;20055;-72
2022/05/03 04:34:06;;;;;;;6.53;4.75;;;;;;;20.34;51.24;100869.53;4976679;28;20042;-72
2022/05/03 04:36:35;;;;;;;5.93;4.07;;;;;;;20.33;51.32;100876.72;4976551;28;20064;-72
2022/05/03 04:39:03;;;;;;;5.80;4.55;;;;;;;20.34;51.21;100880.28;4975951;28;20057;-72
2022/05/03 04:41:31;;;;;;;5.07;4.25;;;;;;;20.33;51.25;100884.78;4975797;28;20058;-72
2022/05/03 04:43:58;;;;;;;5.00;4.20;;;;;;;20.33;51.17;100884.78;4975888;28;20043;-72
2022/05/03 04:46:25;;;;;;;5.25;4.72;;;;;;;20.34;51.29;100881.16;4976279;28;20047;-72
2022/05/03 04:48:53;;;;;;;4.47;3.72;;;;;;;20.33;51.23;100883.94;4976258;28;20061;-72
2022/05/03 04:51:23;;;;;;;4.72;4.30;;;;;;;20.33;51.09;100882.09;4976477;28;20387;-72
2022/05/03 04:53:51;;;;;;;4.55;4.07;;;;;;;20.33;51.25;100873.19;4975750;28;20054;-72
2022/05/03 04:56:21;;;;;;;4.72;3.95;;;;;;;20.33;51.11;100875.88;4974253;28;20062;-72
2022/05/03 04:58:49;;;;;;;6.10;4.82;;;;;;;20.32;51.13;100877.72;4975618;28;20051;-72
2022/05/03 05:01:17;;;;;;;5.38;4.13;;;;;;;20.32;51.04;100884.94;4975489;28;20055;-71
2022/05/03 05:03:45;;;;;;;5.85;4.90;;;;;;;20.33;51.12;100886.63;4975464;28;20486;-72
2022/05/03 05:06:12;;;;;;;5.13;4.55;;;;;;;20.32;51.12;100888.47;4976207;28;20046;-71
2022/05/03 05:08:42;;;;;;;5.13;4.45;;;;;;;20.32;51.01;100882.25;4976332;28;20050;-72
2022/05/03 05:11:11;;;;;;;4.47;3.95;;;;;;;20.33;51.07;100889.31;4975224;28;20412;-72
2022/05/03 05:13:39;;;;;;;6.28;4.63;;;;;;;20.32;51.15;100893.84;4975536;28;20043;-72
2022/05/03 05:16:07;;;;;;;6.75;4.95;;;;;;;20.32;51.22;100895.69;4975758;28;20483;-72
2022/05/03 05:18:35;;;;;;;5.20;4.32;;;;;;;20.32;51.06;100895.69;4976005;28;20475;-71
2022/05/03 05:21:03;;;;;;;6.05;4.22;;;;;;;20.32;51.11;100901.06;4975884;28;20043;-72
2022/05/03 05:23:30;;;;;;;5.22;4.72;;;;;;;20.31;51.24;100897.53;4975140;28;20402;-71
2022/05/03 05:25:57;;;;;;;5.90;4.68;;;;;;;20.31;50.97;100902.91;4975006;28;20403;-71
2022/05/03 05:28:26;;;;;;;5.20;4.20;;;;;;;20.32;51.17;100903.75;4975366;28;20069;-71
2022/05/03 05:30:54;;;;;;;5.22;4.72;;;;;;;20.31;51.05;100908.28;4974210;28;20050;-71
2022/05/03 05:33:22;;;;;;;5.28;4.50;;;;;;;20.30;51.21;100903.91;4975272;28;20043;-71
2022/05/03 05:35:51;;;;;;;4.93;4.43;;;;;;;20.30;51.15;100913.81;4973659;28;20051;-72
2022/05/03 05:38:19;;;;;;;5.30;4.15;;;;;;;20.30;50.97;100917.34;4975396;28;20047;-71
2022/05/03 05:40:48;;;;;;;7.57;4.15;;;;;;;20.31;51.03;100923.59;4974886;28;20042;-71
2022/05/03 05:43:15;;;;;;;5.03;4.43;;;;;;;20.31;51.15;100921.75;4975325;28;20486;-71
2022/05/03 05:45:43;;;;;;;4.85;4.38;;;;;;;20.31;51.16;100916.34;4974746;28;20050;-71
2022/05/03 05:48:13;;;;;;;5.85;4.57;;;;;;;20.31;51.07;100920.88;4974789;28;20498;-71
2022/05/03 05:50:41;;;;;;;5.22;4.72;;;;;;;20.30;51.00;100920.03;4974679;28;20051;-71
2022/05/03 05:55:54;;;;;;;5.80;4.40;;;;;;;20.30;51.01;100930.81;4975057;28;20049;-72
2022/05/03 05:58:21;;;;;;;4.50;4.10;;;;;;;20.30;50.95;100927.25;4974510;28;20054;-71
2022/05/03 06:00:49;;;;;;;5.97;3.63;;;;;;;20.31;51.29;100926.28;4974526;28;20047;-71
2022/05/03 06:03:16;;;;;;;5.00;3.90;;;;;;;20.30;51.14;100916.50;4974934;28;20051;-70
2022/05/03 06:05:44;;;;;;;4.32;3.92;;;;;;;20.31;51.25;100920.88;4974747;28;20091;-72
2022/05/03 06:08:11;;;;;;;4.40;4.00;;;;;;;20.30;51.33;100924.56;4975004;28;20050;-72
2022/05/03 06:10:38;;;;;;;5.65;4.80;;;;;;;20.30;51.12;100921.88;4974394;28;20047;-72
2022/05/03 06:13:06;;;;;;;4.15;3.75;;;;;;;20.31;51.00;100931.66;4975071;28;20119;-72
2022/05/03 06:15:33;;;;;;;4.90;4.47;;;;;;;20.30;51.02;100924.56;4973547;28;20047;-72
2022/05/03 06:18:01;;;;;;;4.93;4.43;;;;;;;20.29;51.05;100926.38;4975760;28;20479;-72
2022/05/03 06:20:28;;;;;;;5.15;4.18;;;;;;;20.31;51.03;100931.66;4974882;28;20050;-72
2022/05/03 06:22:56;;;;;;;5.03;4.28;;;;;;;20.30;51.03;100938.88;4974318;28;20057;-72
2022/05/03 06:25:23;;;;;;;4.10;3.70;;;;;;;20.31;51.10;100934.34;4974726;28;20039;-72
2022/05/03 06:27:53;;;;;;;4.97;4.10;;;;;;;20.30;51.10;100932.63;4974353;28;20422;-72
2022/05/03 06:30:21;;;;;;;4.30;3.90;;;;;;;20.29;51.03;100931.75;4974968;28;20485;-72
2022/05/03 06:32:48;;;;;;;4.57;3.95;;;;;;;20.29;51.13;100933.59;4974188;28;20051;-72
2022/05/03 06:35:15;;;;;;;5.22;4.63;;;;;;;20.29;51.13;100931.75;4974154;28;20483;-72
2022/05/03 06:37:43;;;;;;;4.78;4.28;;;;;;;20.30;51.24;100932.63;4973830;28;20073;-72
2022/05/03 06:40:11;;;;;;;6.93;5.70;;;;;;;20.31;50.93;100939.72;4974321;28;20061;-72
2022/05/03 06:42:39;;;;;;;10.80;7.53;;;;;;;20.29;50.62;100936.28;4976060;28;20058;-72
2022/05/03 06:45:09;;;;;;;9.63;8.63;;;;;;;20.24;50.09;100934.84;4978382;28;20054;-72
2022/05/03 06:47:44;;;;;;;11.05;9.57;;;;;;;20.19;50.16;100938.94;4977931;28;20054;-72
2022/05/03 06:50:12;;;;;;;10.75;8.20;;;;;;;20.15;50.27;100937.53;4979149;28;20043;-72
2022/05/03 06:52:39;;;;;;;8.93;7.55;;;;;;;20.14;50.46;100933.97;4976674;28;20062;-72
2022/05/03 06:55:07;;;;;;;9.80;7.82;;;;;;;20.13;50.34;100939.47;4960793;28;20051;-72
2022/05/03 06:57:35;;;;;;;12.05;7.28;;;;;;;20.11;50.40;100936.94;4978124;28;20051;-72
2022/05/03 07:00:05;;;;;;;9.10;7.30;;;;;;;20.09;50.42;100936.19;4977097;28;20410;-73
2022/05/03 07:02:33;;;;;;;8.50;7.15;;;;;;;20.09;50.53;100941.56;4977553;28;20046;-72
2022/05/03 07:05:02;;;;;;;7.35;6.43;;;;;;;20.10;50.67;100937.94;4977871;28;20047;-73
2022/05/03 07:07:30;;;;;;;9.60;7.88;;;;;;;20.12;50.52;100943.16;4976791;28;20066;-73
2022/05/03 07:09:59;;;;;;;8.38;7.63;;;;;;;20.12;50.54;100941.31;4977444;28;20495;-74
2022/05/03 07:12:28;;;;;;;11.73;7.72;;;;;;;20.13;50.76;100937.63;4977611;28;20047;-74
2022/05/03 07:15:04;;;;;;;8.77;7.72;;;;;;;20.16;50.85;100947.28;4977493;28;20039;-73
2022/05/03 07:23:04;;;;;;;8.20;7.22;;;;;;;20.23;50.06;100960.06;4977412;28;20066;-74
2022/05/03 07:25:31;;;;;;;8.48;7.03;;;;;;;20.25;50.33;100955.41;4977701;28;20047;-73
2022/05/03 07:27:59;;;;;;;9.65;7.05;;;;;;;20.24;49.58;100951.00;4977354;28;20051;-72
2022/05/03 07:30:26;;;;;;;10.07;7.68;;;;;;;20.21;48.46;100955.78;4977166;28;20046;-72
2022/05/03 07:32:54;;;;;;;9.60;6.93;;;;;;;20.19;48.49;100952.41;4975996;28;20066;-71
2022/05/03 07:35:21;;;;;;;8.75;5.95;;;;;;;20.18;48.82;100950.69;4976856;28;20140;-71
2022/05/03 07:37:50;;;;;;;11.88;6.85;;;;;;;20.21;49.12;100951.25;4975741;28;20127;-72
2022/05/03 07:40:17;;;;;;;10.95;6.07;;;;;;;20.23;49.70;100949.28;4976608;28;20051;-73
2022/05/03 07:42:46;;;;;;;7.97;5.90;;;;;;;20.27;49.46;100951.72;4976965;28;20153;-70
2022/05/03 07:45:15;;;;;;;8.10;6.32;;;;;;;20.30;49.21;100955.00;4975716;28;20042;-71
2022/05/03 07:47:42;;;;;;;7.50;5.40;;;;;;;20.33;49.43;100949.31;4976992;28;20047;-71
2022/05/03 07:50:10;;;;;;;8.13;6.43;;;;;;;20.36;49.55;100958.97;4976506;28;20051;-72
2022/05/03 07:52:38;;;;;;;5.75;4.97;;;;;;;20.39;49.54;100947.94;4975807;28;20069;-72
2022/05/03 07:55:09;;;;;;;7.00;5.72;;;;;;;20.42;49.71;100953.91;4976210;28;20047;-72
2022/05/03 07:57:36;;;;;;;7.25;5.75;;;;;;;20.43;49.53;100958.28;4975886;28;20051;-72
2022/05/03 08:00:06;;;;;;;6.75;5.80;;;;;;;20.46;49.13;100951.81;4976796;28;20407;-71
2022/05/03 08:02:33;;;;;;;7.65;6.30;;;;;;;20.48;49.17;100957.88;4976616;28;20055;-73
2022/05/03 08:05:01;;;;;;;5.97;5.28;;;;;;;20.50;49.17;100955.94;4976764;28;20047;-73
2022/05/03 08:07:28;;;;;;;5.93;5.38;;;;;;;20.52;49.54;100953.97;4976914;28;20046;-74
2022/05/03 08:09:56;;;;;;;11.18;5.20;;;;;;;20.55;49.28;100958.22;4976446;28;20603;-72
2022/05/03 08:12:23;;;;;;;6.40;5.10;;;;;;;20.55;49.08;100958.22;4976393;28;20395;-73
2022/05/03 08:14:52;;;;;;;5.57;4.95;;;;;;;20.56;49.36;100958.09;4976751;28;20046;-73
2022/05/03 08:17:19;;;;;;;5.90;5.20;;;;;;;20.57;48.96;100962.47;4976442;28;20407;-71
2022/05/03 08:19:47;;;;;;;7.22;5.32;;;;;;;20.58;48.48;100964.19;4975939;28;20426;-72
2022/05/03 08:22:14;;;;;;;7.57;5.82;;;;;;;20.59;47.89;100959.66;4974977;28;20051;-72
2022/05/03 08:24:42;;;;;;;7.38;5.78;;;;;;;20.60;48.26;100959.50;4976200;28;20051;-73
2022/05/03 08:27:09;;;;;;;6.63;5.90;;;;;;;20.59;48.29;100965.88;4976629;28;20050;-71
2022/05/03 08:29:37;;;;;;;6.53;5.53;;;;;;;20.59;47.98;100965.88;4976656;28;20050;-71
2022/05/03 08:32:05;;;;;;;6.47;5.85;;;;;;;20.61;47.95;100973.81;4976278;28;20054;-71
2022/05/03 08:34:32;;;;;;;9.25;6.35;;;;;;;20.61;48.09;100973.81;4975769;28;20130;-71
2022/05/03 08:42:36;;;;;;;10.57;6.55;;;;;;;20.65;47.55;100977.94;4983766;28;20066;-71
2022/05/03 08:45:04;;;;;;;7.53;6.72;;;;;;;20.64;46.96;100979.78;4975848;28;20042;-71
2022/05/03 08:47:32;;;;;;;9.15;6.70;;;;;;;20.65;47.01;100978.78;4975768;28;20070;-71
2022/05/03 08:50:03;;;;;;;7.90;6.18;;;;;;;20.66;47.46;100975.13;4974844;28;20054;-71
2022/05/03 08:52:34;;;;;;;7.03;6.32;;;;;;;20.66;47.41;100968.84;4975423;28;20043;-72
2022/05/03 08:55:02;;;;;;;7.28;5.68;;;;;;;20.67;47.58;100976.81;4974920;28;20513;-70
2022/05/03 08:57:30;;;;;;;8.48;6.50;;;;;;;20.69;47.53;100974.81;4975873;28;20069;-71
2022/05/03 08:59:58;;;;;;;8.70;6.47;;;;;;;20.69;47.54;100969.44;4975709;28;20070;-70
2022/05/03 09:02:25;;;;;;;7.00;6.13;;;;;;;20.69;47.27;100972.13;4975461;28;20050;-70
2022/05/03 09:04:52;;;;;;;7.10;6.38;;;;;;;20.69;47.16;100977.50;4957780;28;20047;-71
2022/05/03 09:07:22;;;;;;;8.45;7.57;;;;;;;20.70;46.89;100972.97;4975221;28;20039;-70
2022/05/03 09:09:51;;;;;;;8.23;7.35;;;;;;;20.70;47.04;100973.84;4975648;28;20051;-70
2022/05/03 09:12:26;;;;;;;10.98;7.45;;;;;;;20.71;46.95;100972.00;4975766;28;20051;-70
2022/05/03 09:14:55;;;;;;;;;;;;;;;20.73;47.15;100978.09;4975733;28;20043;-71
2022/05/03 09:17:45;;;;;;;9.88;7.70;;;;;;;20.73;46.89;100968.16;4975092;28;19926;-71
2022/05/03 09:26:19;;;;;;;9.18;7.55;;;;;;;20.76;47.50;100971.59;4974286;28;20066;-70
2022/05/03 09:29:05;;;;;;;10.30;7.13;;;;;;;20.76;47.47;100971.59;4975095;28;20498;-70
2022/05/03 09:31:40;;;;;;;8.50;6.95;;;;;;;20.77;47.54;100974.13;4974753;28;20411;-71
2022/05/03 09:34:23;;;;;;;7.53;6.82;;;;;;;20.77;47.90;100963.38;4974829;28;20046;-71
2022/05/03 09:36:58;;;;;;;7.60;6.15;;;;;;;20.79;48.03;100960.56;4974116;28;20487;-71
2022/05/03 09:39:43;;;;;;;7.32;6.55;;;;;;;20.79;47.88;100960.56;4974524;28;20047;-71
2022/05/03 09:42:19;;;;;;;7.93;6.65;;;;;;;20.79;47.72;100972.16;4986055;28;20042;-71
2022/05/03 09:44:58;;;;;;;9.52;6.78;;;;;;;20.80;47.83;100962.25;4992945;28;20521;-72
2022/05/03 09:47:27;;;;;;;11.32;8.05;;;;;;;20.81;47.89;100963.94;4994028;28;20054;-72
2022/05/03 09:49:54;;;;;;;8.52;7.00;;;;;;;20.81;48.21;100964.81;4992924;28;20050;-73
2022/05/03 09:52:27;;;;;;;8.43;6.13;;;;;;;20.82;48.11;100957.56;4993957;28;20394;-72
2022/05/03 09:55:04;;;;;;;6.77;5.93;;;;;;;20.83;48.21;100960.16;4994495;28;20069;-71
2022/05/03 09:57:34;;;;;;;6.63;5.88;;;;;;;20.83;48.39;100951.22;4994035;28;20061;-72
2022/05/03 10:00:04;;;;;;;7.50;6.80;;;;;;;20.84;48.16;100961.00;4993806;28;20050;-72
2022/05/03 10:02:40;;;;;;;9.13;6.75;;;;;;;20.84;48.13;100959.16;4999263;28;20414;-72
2022/05/03 10:05:15;;;;;;;7.63;6.93;;;;;;;20.85;48.09;100962.69;4992864;28;20055;-72
2022/05/03 10:07:43;;;;;;;11.20;6.78;;;;;;;20.86;48.18;100961.69;4993818;28;20057;-72
2022/05/03 10:10:12;;;;;;;7.72;6.75;;;;;;;20.85;48.13;100958.16;4993741;28;20057;-72
2022/05/03 10:12:42;;;;;;;7.50;6.80;;;;;;;20.86;48.27;100957.16;4992749;28;20050;-73
2022/05/03 10:15:11;;;;;;;7.32;6.43;;;;;;;20.87;48.33;100960.72;4993659;28;20057;-72
2022/05/03 10:20:42;;;;;;;8.07;6.07;;;;;;;20.88;48.36;100951.66;4993681;28;20417;-73
2022/05/03 10:23:25;;;;;;;9.00;6.60;;;;;;;20.90;48.62;100949.66;4992992;28;20051;-72
2022/05/03 10:26:05;;;;;;;7.75;5.68;;;;;;;20.90;48.63;100958.59;4993606;28;20062;-72
2022/05/03 10:28:59;;;;;;;6.85;6.03;;;;;;;20.92;48.63;100950.38;4992523;28;20050;-72
2022/05/03 10:31:26;;;;;;;7.20;6.28;;;;;;;20.92;48.57;100939.63;4993644;28;20047;-71
2022/05/03 10:33:53;;;;;;;6.85;6.15;;;;;;;20.92;48.59;100943.16;4993565;28;20046;-72
2022/05/03 10:36:30;;;;;;;7.55;6.45;;;;;;;20.93;48.70;100935.94;4992135;28;20051;-71
2022/05/03 10:39:05;;;;;;;6.97;5.93;;;;;;;20.92;48.62;100935.09;4994083;28;20400;-71
2022/05/03 10:41:54;;;;;;;6.50;5.80;;;;;;;20.93;48.72;100934.09;4993491;28;20050;-72
2022/05/03 10:44:53;;;;;;;7.13;6.07;;;;;;;20.94;48.59;100934.94;4992201;28;20058;-71
2022/05/03 10:47:41;;;;;;;7.07;5.20;;;;;;;20.94;48.60;100926.84;4993463;28;20401;-71
2022/05/03 10:50:17;;;;;;;6.70;5.45;;;;;;;20.94;48.49;100929.53;4993565;28;20050;-71
2022/05/03 10:53:05;;;;;;;6.47;5.88;;;;;;;20.93;48.54;100919.78;4993744;28;20047;-70
2022/05/03 10:55:40;;;;;;;8.43;6.18;;;;;;;20.93;48.40;100923.31;4992814;28;20453;-71
2022/05/03 10:58:25;;;;;;;7.00;5.68;;;;;;;20.92;48.33;100916.25;4993204;28;20401;-71
2022/05/03 11:01:14;;;;;;;6.47;5.82;;;;;;;20.93;48.24;100923.31;4993561;28;20054;-71
2022/05/03 11:03:48;;;;;;;6.25;5.65;;;;;;;20.93;48.49;100920.63;4993353;28;20046;-73
2022/05/03 11:06:18;;;;;;;5.88;5.25;;;;;;;20.94;48.42;100916.97;4992394;28;20057;-71
2022/05/03 11:11:50;;;;;;;6.28;5.68;;;;;;;20.95;48.46;100907.06;4993401;28;20050;-72
2022/05/03 11:14:18;;;;;;;5.75;5.15;;;;;;;20.95;48.43;100907.91;4991958;28;20039;-71
2022/05/03 11:16:51;;;;;;;6.57;5.88;;;;;;;20.95;48.46;100901.66;4992070;28;20402;-71
2022/05/03 11:19:19;;;;;;;;;;;;;;;20.96;48.29;100903.38;4992741;28;20049;-71
2022/05/03 11:21:48;;;;;;;9.13;6.20;;;;;;;20.96;48.33;100904.22;4993290;28;19922;-71
2022/05/03 11:24:20;;;;;;;5.90;5.30;;;;;;;20.96;48.19;100903.38;4993005;28;20058;-71
2022/05/03 11:26:50;;;;;;;6.72;4.80;;;;;;;20.95;48.19;100894.44;4993404;28;20046;-71
2022/05/03 11:29:18;;;;;;;5.65;4.85;;;;;;;20.97;48.20;100896.97;4994879;28;20046;-71
2022/05/03 11:31:50;;;;;;;6.90;4.97;;;;;;;20.96;48.42;100898.81;4996864;28;20489;-71
2022/05/03 11:34:19;;;;;;;5.05;4.35;;;;;;;20.98;48.04;100901.38;4996690;28;20410;-70
2022/05/03 11:36:50;;;;;;;5.65;4.35;;;;;;;20.99;48.23;100892.31;4996494;28;20058;-71
2022/05/03 11:39:18;;;;;;;5.63;4.70;;;;;;;20.99;48.38;100898.56;4997225;28;20046;-71
2022/05/03 11:41:47;;;;;;;6.82;4.90;;;;;;;20.99;48.20;100892.31;4996855;28;20054;-73
2022/05/03 11:44:15;;;;;;;6.03;5.00;;;;;;;21.01;48.22;100889.47;4996939;28;20057;-71
2022/05/03 11:46:45;;;;;;;7.47;5.35;;;;;;;21.02;48.05;100889.31;4979127;28;20417;-71
2022/05/03 11:49:14;;;;;;;8.40;5.28;;;;;;;21.04;47.95;100891.91;4996580;28;20042;-71
2022/05/03 11:57:42;;;;;;;6.45;4.82;;;;;;;21.07;48.33;100887.09;4996391;28;20042;-72
2022/05/03 12:00:15;;;;;;;5.18;4.65;;;;;;;21.08;48.25;100879.84;4995488;28;20055;-71
2022/05/03 12:02:44;;;;;;;6.18;5.57;;;;;;;21.08;46.66;100883.38;4995409;28;20097;-72
2022/05/03 12:05:18;;;;;;;5.93;4.85;;;;;;;21.09;48.08;100877.00;4996457;28;20140;-71
2022/05/03 12:07:49;;;;;;;7.68;5.20;;;;;;;21.10;48.03;100870.63;4996640;28;20157;-71
2022/05/03 12:10:25;;;;;;;7.47;5.00;;;;;;;21.10;48.70;100870.63;4996186;28;20049;-71
2022/05/03 12:13:10;;;;;;;7.07;4.90;;;;;;;21.10;48.70;100867.94;4995347;28;20051;-70
2022/05/03 12:15:47;;;;;;;4.97;4.47;;;;;;;21.10;48.43;100865.25;4996039;28;20050;-70
2022/05/03 12:18:18;;;;;;;5.50;4.35;;;;;;;21.10;48.64;100867.94;4996017;28;20038;-70
2022/05/03 12:21:05;;;;;;;7.85;4.55;;;;;;;21.10;48.62;100870.63;4995701;28;20054;-71
2022/05/03 12:23:33;;;;;;;6.80;4.55;;;;;;;21.11;48.82;100869.66;4995711;28;20065;-71
2022/05/03 12:26:12;;;;;;;8.32;5.00;;;;;;;21.11;49.22;100869.66;4995395;28;20061;-70
2022/05/03 12:28:45;;;;;;;5.82;4.80;;;;;;;21.13;48.92;100870.34;4996062;28;20050;-71
2022/05/03 12:31:16;;;;;;;5.85;4.88;;;;;;;21.13;48.81;100864.97;4995532;28;20061;-70
2022/05/03 12:33:48;;;;;;;6.25;5.03;;;;;;;21.13;48.88;100859.56;4995482;28;20050;-70